首页
METAR-TAF:

METAR-TAF

机场 :

Tanagra, 希腊

纬度: 38-19N, 经度: 023-32E, 海拔: 148米

METAR: 丢失

时间: 13:48 (10:48 UTC)

预报

该预报发布于2小时和48分钟前的08:00 UTC
预报有效从22日的 09点(UTC)到 22日的 18点(UTC)
风速10节,风向西
能见度10公里或以上
少量云层高于3000英尺

TAF: LGTG 220800Z 2209/2218 26010KT 9999 FEW030

超过4000个机场的气象观测和天气预报(METAR&TAF报告)。

可查询的气象台以黄色和红色小点在地图上表示。

将鼠标移到小点上方,可查看气象台名称。

然后点击查看天气观测和预报。

如需切换地图:点击带黑十字的绿色按钮放大地图;点击带横线的绿色按钮缩小地图;或者点击绿色箭头查看邻近地区的地图。


METAR-TAF: